Time;durP1;ratioP1;P1;durP2;ratioP2;P2;SDS_P1;SDS_P2;PMS_P1;PMS_P2;Temp;Humidity;BMP_temperature;BMP_pressure;BME280_temperature;BME280_humidity;BME280_pressure;Samples;Min_cycle;Max_cycle;Signal;HPM_P1;HPM_P2
2022/04/27 00:01:21;;;;;;;56.80;29.80;;;;;;;8.31;78.46;100592.44;1607935;89;25466;-72
2022/04/27 00:03:47;;;;;;;49.42;28.75;;;;;;;8.30;78.51;100594.06;1607974;89;27511;-74
2022/04/27 00:06:14;;;;;;;59.08;29.63;;;;;;;8.29;78.57;100593.80;1607818;89;25645;-72
2022/04/27 00:08:40;;;;;;;52.62;28.60;;;;;;;8.27;78.62;100591.38;1607964;89;25448;-73
2022/04/27 00:11:06;;;;;;;49.83;27.95;;;;;;;8.27;78.51;100597.33;1607908;88;25699;-73
2022/04/27 00:13:32;;;;;;;44.48;25.82;;;;;;;8.26;78.55;100591.66;1608024;89;25665;-73
2022/04/27 00:15:58;;;;;;;50.10;28.77;;;;;;;8.23;78.49;100592.50;1608038;88;27548;-73
2022/04/27 00:18:24;;;;;;;49.23;27.98;;;;;;;8.24;78.61;100600.06;1607953;89;25747;-73
2022/04/27 00:20:50;;;;;;;50.92;28.25;;;;;;;8.22;78.52;100594.95;1608050;88;25479;-73
2022/04/27 00:23:17;;;;;;;52.13;28.42;;;;;;;8.19;78.37;100594.17;1608052;88;25823;-73
2022/04/27 00:25:44;;;;;;;50.03;27.42;;;;;;;8.18;78.27;100593.91;1608230;89;25437;-73
2022/04/27 00:28:10;;;;;;;50.15;28.20;;;;;;;8.17;78.34;100602.27;1608010;88;27345;-73
2022/04/27 00:30:36;;;;;;;45.80;26.93;;;;;;;8.14;78.46;100602.83;1607960;89;25762;-73
2022/04/27 00:33:02;;;;;;;51.85;27.32;;;;;;;8.13;78.55;100599.90;1608077;89;25575;-73
2022/04/27 00:35:28;;;;;;;46.15;26.48;;;;;;;8.10;78.49;100606.64;1608020;89;25693;-73
2022/04/27 00:37:54;;;;;;;43.80;27.30;;;;;;;8.08;78.42;100603.98;1608064;89;25511;-73
2022/04/27 00:40:21;;;;;;;38.65;24.45;;;;;;;8.06;78.67;100605.62;1608044;89;28065;-73
2022/04/27 00:42:47;;;;;;;42.33;24.92;;;;;;;8.05;78.42;100602.65;1607919;89;25495;-73
2022/04/27 00:45:13;;;;;;;42.45;25.43;;;;;;;8.04;78.58;100602.41;1608044;89;25662;-73
2022/04/27 00:47:39;;;;;;;40.70;23.98;;;;;;;8.03;78.18;100603.48;1607965;89;34830;-73
2022/04/27 00:50:06;;;;;;;39.30;24.12;;;;;;;8.01;78.31;100597.58;1608044;89;32426;-73
2022/04/27 00:52:33;;;;;;;44.00;26.02;;;;;;;7.99;78.24;100603.25;1617772;88;27395;-73
2022/04/27 00:55:00;;;;;;;42.17;24.25;;;;;;;7.96;78.31;100601.67;1621341;88;25705;-73
2022/04/27 00:57:26;;;;;;;40.30;24.65;;;;;;;7.93;78.30;100600.89;1621386;88;25564;-73
2022/04/27 00:59:54;;;;;;;40.50;24.27;;;;;;;7.90;78.22;100604.14;1621382;88;25699;-73
2022/04/27 01:02:21;;;;;;;40.00;24.63;;;;;;;7.85;78.33;100599.08;1621439;88;25425;-73
2022/04/27 01:04:47;;;;;;;37.83;24.37;;;;;;;7.80;78.17;100603.16;1621388;88;27437;-73
2022/04/27 01:07:13;;;;;;;46.45;25.50;;;;;;;7.77;78.38;100603.72;1621319;88;25519;-73
2022/04/27 01:09:40;;;;;;;38.38;25.85;;;;;;;7.74;78.64;100602.13;1621424;88;25542;-74
2022/04/27 01:12:08;;;;;;;43.05;26.02;;;;;;;7.72;78.31;100609.70;1621392;88;26267;-74
2022/04/27 01:14:47;;;;;;;40.95;24.50;;;;;;;7.66;78.33;100608.91;1621423;88;25447;-73
2022/04/27 01:17:14;;;;;;;36.20;24.15;;;;;;;7.60;78.07;100612.20;1621527;88;28119;-72
2022/04/27 01:19:40;;;;;;;39.38;24.77;;;;;;;7.54;77.91;100613.86;1621340;88;25602;-72
2022/04/27 01:22:07;;;;;;;41.58;25.80;;;;;;;7.47;77.73;100615.00;1621395;88;25513;-73
2022/04/27 01:24:34;;;;;;;41.88;25.50;;;;;;;7.39;77.88;100608.03;1621350;88;25702;-73
2022/04/27 01:27:00;;;;;;;43.13;26.97;;;;;;;7.31;77.86;100619.41;1621389;88;25693;-73
2022/04/27 01:29:26;;;;;;;38.65;25.77;;;;;;;7.20;77.69;100622.69;1621333;88;28039;-73
2022/04/27 01:31:53;;;;;;;40.65;25.55;;;;;;;7.09;77.74;100619.26;1621269;88;25608;-74
2022/04/27 01:34:20;;;;;;;41.42;26.02;;;;;;;6.98;77.79;100627.10;1621230;88;25498;-73
2022/04/27 01:36:46;;;;;;;41.60;25.43;;;;;;;6.87;77.94;100619.63;1621266;88;26322;-73
2022/04/27 01:39:13;;;;;;;43.13;26.12;;;;;;;6.80;78.19;100625.30;1621220;88;25579;-73
2022/04/27 01:41:39;;;;;;;40.30;26.02;;;;;;;6.72;78.32;100630.73;1621225;88;27377;-73
2022/04/27 01:44:06;;;;;;;39.73;26.10;;;;;;;6.66;78.53;100633.70;1621176;88;25542;-73
2022/04/27 01:46:32;;;;;;;40.08;26.35;;;;;;;6.58;78.53;100624.31;1621358;88;25512;-74
2022/04/27 01:48:58;;;;;;;50.95;27.15;;;;;;;6.53;78.69;100628.36;1621131;88;25674;-73
2022/04/27 01:54:16;;;;;;;43.08;28.00;;;;;;;6.38;79.16;100631.09;1621226;88;28056;-73
2022/04/27 01:56:47;;;;;;;42.38;26.65;;;;;;;6.33;79.29;100630.55;1621185;88;25486;-73
2022/04/27 01:59:15;;;;;;;41.50;26.52;;;;;;;6.27;79.30;100628.42;1621202;88;25658;-74
2022/04/27 02:01:42;;;;;;;40.67;26.42;;;;;;;6.23;79.49;100628.71;1621224;88;25829;-74
2022/04/27 02:04:09;;;;;;;40.78;25.62;;;;;;;6.20;79.57;100631.11;1621259;88;25704;-74
2022/04/27 02:06:36;;;;;;;39.90;26.02;;;;;;;6.15;79.37;100631.39;1621202;88;27412;-74
2022/04/27 02:09:05;;;;;;;42.60;26.70;;;;;;;6.09;79.07;100629.78;1621032;88;25724;-74
2022/04/27 02:11:32;;;;;;;41.58;27.05;;;;;;;6.09;79.02;100630.33;1620990;88;25658;-74
2022/04/27 02:14:00;;;;;;;41.90;27.58;;;;;;;6.06;79.22;100634.89;1621189;88;25986;-74
2022/04/27 02:16:29;;;;;;;38.33;26.10;;;;;;;6.03;79.50;100636.25;1597394;88;25401;-74
2022/04/27 02:18:56;;;;;;;42.55;25.97;;;;;;;5.97;79.47;100626.58;1621347;88;27281;-74
2022/04/27 02:21:25;;;;;;;40.55;26.33;;;;;;;5.93;79.41;100626.83;1621072;88;25732;-75
2022/04/27 02:23:52;;;;;;;38.50;24.98;;;;;;;5.88;79.54;100633.00;1621180;88;25599;-75
2022/04/27 02:26:18;;;;;;;42.88;26.07;;;;;;;5.80;79.46;100633.53;1621160;88;25636;-74
2022/04/27 02:28:44;;;;;;;38.20;25.15;;;;;;;5.74;79.65;100634.62;1621172;88;25572;-74
2022/04/27 02:31:10;;;;;;;38.50;26.00;;;;;;;5.69;79.64;100636.75;1621160;88;28163;-74
2022/04/27 02:33:36;;;;;;;41.08;26.75;;;;;;;5.64;79.64;100630.04;1621088;88;25683;-74
2022/04/27 02:36:03;;;;;;;41.23;25.52;;;;;;;5.58;79.50;100632.44;1621184;88;25633;-74
2022/04/27 02:38:29;;;;;;;40.40;26.07;;;;;;;5.52;79.59;100638.89;1621155;88;25545;-74
2022/04/27 02:40:55;;;;;;;42.30;27.13;;;;;;;5.46;79.70;100634.58;1621176;88;25449;-74
2022/04/27 02:43:21;;;;;;;49.35;28.10;;;;;;;5.41;79.72;100634.02;1621178;88;27333;-74
2022/04/27 02:45:48;;;;;;;38.98;25.20;;;;;;;5.36;79.58;100632.67;1621106;88;25567;-74
2022/04/27 02:48:15;;;;;;;41.60;26.07;;;;;;;5.29;79.78;100636.95;1621155;88;25647;-74
2022/04/27 02:53:26;;;;;;;41.53;25.32;;;;;;;5.18;80.00;100638.81;1608863;88;25608;-74
2022/04/27 02:55:52;;;;;;;44.35;26.77;;;;;;;5.10;79.96;100640.66;1607757;89;27295;-74
2022/04/27 02:58:19;;;;;;;47.40;26.73;;;;;;;5.05;80.16;100642.78;1607729;89;25618;-74
2022/04/27 03:00:45;;;;;;;41.05;25.80;;;;;;;4.99;80.10;100646.53;1607793;89;25431;-74
2022/04/27 03:03:12;;;;;;;39.90;25.48;;;;;;;4.96;79.96;100647.59;1607741;89;26151;-74
2022/04/27 03:05:40;;;;;;;37.60;24.02;;;;;;;4.90;79.84;100642.73;1607827;89;25595;-74
2022/04/27 03:08:08;;;;;;;39.65;24.15;;;;;;;4.85;79.58;100647.56;1607765;89;27419;-74
2022/04/27 03:10:34;;;;;;;40.70;24.67;;;;;;;4.84;79.39;100651.84;1607758;89;25652;-75
2022/04/27 03:13:00;;;;;;;40.12;24.90;;;;;;;4.80;79.64;100650.22;1607803;89;29558;-75
2022/04/27 03:15:27;;;;;;;43.40;25.68;;;;;;;4.77;79.84;100654.75;1607731;89;25625;-75
2022/04/27 03:20:37;;;;;;;43.87;24.18;;;;;;;4.67;79.30;100658.18;1607853;89;28052;-74
2022/04/27 03:23:03;;;;;;;40.23;24.15;;;;;;;4.63;79.54;100662.97;1607717;89;33031;-74
2022/04/27 03:25:30;;;;;;;41.48;25.15;;;;;;;4.58;79.76;100668.30;1607802;89;25471;-74
2022/04/27 03:27:56;;;;;;;39.40;25.43;;;;;;;4.53;79.74;100666.94;1607761;88;25622;-74
2022/04/27 03:30:22;;;;;;;39.50;24.98;;;;;;;4.47;79.87;100670.92;1607852;89;25432;-74
2022/04/27 03:32:48;;;;;;;46.70;26.37;;;;;;;4.43;80.05;100675.73;1607820;89;27552;-74
2022/04/27 03:35:14;;;;;;;48.13;27.48;;;;;;;4.41;80.24;100679.18;1607727;89;33083;-74
2022/04/27 03:37:40;;;;;;;41.45;26.57;;;;;;;4.39;80.30;100688.02;1607847;89;25496;-74
2022/04/27 03:40:09;;;;;;;43.45;25.95;;;;;;;4.35;80.29;100686.39;1607960;89;26121;-74
2022/04/27 03:42:35;;;;;;;40.73;26.37;;;;;;;4.34;80.28;100688.78;1607929;89;25492;-75
2022/04/27 03:45:02;;;;;;;40.20;26.00;;;;;;;4.33;80.38;100693.08;1607756;89;28169;-74
2022/04/27 03:47:28;;;;;;;41.45;26.05;;;;;;;4.31;80.53;100694.67;1607766;89;25660;-74
2022/04/27 03:49:55;;;;;;;48.10;27.27;;;;;;;4.30;80.66;100692.50;1607939;88;25471;-75
2022/04/27 03:52:21;;;;;;;46.23;27.25;;;;;;;4.28;80.82;100698.66;1611103;88;25637;-75
2022/04/27 03:54:47;;;;;;;43.13;26.48;;;;;;;4.30;81.14;100701.08;1621358;88;32461;-75
2022/04/27 03:57:13;;;;;;;42.62;26.60;;;;;;;4.30;81.32;100703.22;1621280;88;27387;-74
2022/04/27 03:59:39;;;;;;;41.90;26.37;;;;;;;4.34;81.47;100706.73;1621480;88;25659;-74
2022/04/27 04:02:06;;;;;;;40.98;27.22;;;;;;;4.35;81.53;100707.81;1621534;88;29162;-74
2022/04/27 04:04:32;;;;;;;44.33;27.40;;;;;;;4.38;81.74;100707.30;1621272;88;25836;-74
2022/04/27 04:06:59;;;;;;;43.95;27.00;;;;;;;4.41;82.02;100712.66;1621333;88;25575;-74
2022/04/27 04:09:25;;;;;;;49.80;28.65;;;;;;;4.45;82.25;100719.14;1621236;88;27352;-74
2022/04/27 04:11:51;;;;;;;41.92;27.62;;;;;;;4.50;82.39;100724.53;1621157;88;25484;-74
2022/04/27 04:14:17;;;;;;;47.75;27.70;;;;;;;4.54;82.54;100722.14;1621306;88;25455;-74
2022/04/27 04:16:43;;;;;;;48.15;28.20;;;;;;;4.59;82.75;100720.84;1621259;88;25640;-74
2022/04/27 04:19:10;;;;;;;45.05;27.32;;;;;;;4.64;82.87;100724.34;1621522;88;32415;-74
2022/04/27 04:21:36;;;;;;;41.77;26.45;;;;;;;4.71;83.00;100736.72;1621291;88;27530;-74
2022/04/27 04:24:02;;;;;;;51.40;29.35;;;;;;;4.76;83.20;100733.53;1621228;88;25668;-74
2022/04/27 04:29:13;;;;;;;98.00;57.33;;;;;;;4.90;83.44;100741.91;1621303;88;25677;-74
2022/04/27 04:31:39;;;;;;;76.65;44.33;;;;;;;4.98;83.57;100741.97;1621513;88;25698;-75
2022/04/27 04:34:05;;;;;;;50.98;31.80;;;;;;;5.03;83.90;100740.11;1621384;88;27425;-75
2022/04/27 04:36:31;;;;;;;50.10;30.25;;;;;;;5.13;84.03;100745.27;1621244;88;25505;-75
2022/04/27 04:38:58;;;;;;;46.40;31.62;;;;;;;5.21;84.25;100746.08;1621308;88;25597;-75
2022/04/27 04:41:24;;;;;;;48.63;31.75;;;;;;;5.30;84.54;100749.89;1621222;88;25785;-75
2022/04/27 04:43:50;;;;;;;50.12;32.98;;;;;;;5.40;84.79;100757.19;1621265;88;25616;-74
2022/04/27 04:46:16;;;;;;;46.70;29.40;;;;;;;5.47;84.97;100755.05;1621241;88;27328;-74
2022/04/27 04:48:42;;;;;;;49.93;30.75;;;;;;;5.57;85.18;100759.11;1621216;88;33069;-74
2022/04/27 04:51:08;;;;;;;53.70;31.05;;;;;;;5.66;85.32;100760.74;1621431;88;25627;-74
2022/04/27 04:53:34;;;;;;;52.30;31.40;;;;;;;5.75;85.37;100761.83;1613376;88;25806;-74
2022/04/27 04:56:00;;;;;;;49.93;31.97;;;;;;;5.85;85.58;100764.28;1608326;89;25232;-74
2022/04/27 04:58:26;;;;;;;55.10;32.42;;;;;;;5.96;85.68;100769.98;1608453;89;27435;-74
2022/04/27 05:00:52;;;;;;;42.25;27.75;;;;;;;6.06;85.71;100765.97;1608519;89;33021;-74
2022/04/27 05:03:18;;;;;;;39.65;27.05;;;;;;;6.16;85.69;100765.98;1608691;89;25667;-74
2022/04/27 05:05:45;;;;;;;40.80;25.88;;;;;;;6.27;85.71;100771.36;1608603;89;34681;-74
2022/04/27 05:08:11;;;;;;;39.10;24.57;;;;;;;6.38;85.66;100772.95;1608038;88;25307;-74
2022/04/27 05:10:38;;;;;;;38.45;24.55;;;;;;;6.47;85.46;100778.07;1608033;89;27322;-74
2022/04/27 05:13:04;;;;;;;32.85;23.47;;;;;;;6.58;85.43;100780.20;1607968;89;25441;-73
2022/04/27 05:15:31;;;;;;;33.60;22.60;;;;;;;6.71;85.43;100783.69;1607994;88;25440;-73
2022/04/27 05:17:57;;;;;;;40.92;23.02;;;;;;;6.85;85.55;100789.31;1607872;89;25721;-74
2022/04/27 05:20:24;;;;;;;34.13;21.85;;;;;;;6.99;85.63;100794.13;1607915;89;25233;-74
2022/04/27 05:22:50;;;;;;;33.42;21.25;;;;;;;7.13;85.45;100795.16;1607913;89;27402;-74
2022/04/27 05:25:16;;;;;;;25.40;18.98;;;;;;;7.27;85.12;100802.94;1607859;89;25752;-74
2022/04/27 05:27:42;;;;;;;31.30;19.77;;;;;;;7.40;84.64;100800.19;1607888;89;25340;-74
2022/04/27 05:32:55;;;;;;;30.35;19.40;;;;;;;7.74;84.16;100805.44;1588583;90;25745;-74
2022/04/27 05:35:23;;;;;;;25.40;17.42;;;;;;;7.92;83.48;100805.36;1588192;90;27353;-74
2022/04/27 05:37:49;;;;;;;24.50;16.70;;;;;;;8.10;83.24;100811.97;1588616;90;25610;-73
2022/04/27 05:40:15;;;;;;;23.77;16.80;;;;;;;8.28;83.02;100816.70;1583425;90;25704;-72
2022/04/27 05:42:42;;;;;;;24.57;17.55;;;;;;;8.46;82.32;100821.97;1583347;90;25691;-73
2022/04/27 05:45:09;;;;;;;22.45;15.72;;;;;;;8.64;82.08;100820.48;1583423;90;25911;-74
2022/04/27 05:47:35;;;;;;;20.45;15.68;;;;;;;8.86;81.81;100828.12;1583455;90;28283;-73
2022/04/27 05:50:04;;;;;;;24.25;15.83;;;;;;;9.05;81.23;100826.85;1583846;90;25684;-73
2022/04/27 05:52:33;;;;;;;21.57;14.30;;;;;;;9.26;80.44;100826.11;1584143;90;25613;-73
2022/04/27 05:55:00;;;;;;;21.52;14.65;;;;;;;9.48;79.82;100838.27;1631904;87;25710;-74
2022/04/27 05:57:26;;;;;;;19.55;14.75;;;;;;;9.63;78.92;100836.73;1631394;87;25417;-74
2022/04/27 05:59:52;;;;;;;18.75;14.18;;;;;;;9.82;78.49;100844.86;1631347;87;27393;-73
2022/04/27 06:02:18;;;;;;;20.90;13.58;;;;;;;10.04;78.22;100844.30;1631273;88;25588;-73
2022/04/27 06:04:44;;;;;;;18.45;13.58;;;;;;;10.22;77.65;100847.32;1631395;87;25587;-73
2022/04/27 06:07:10;;;;;;;22.82;14.30;;;;;;;10.40;77.34;100845.19;1631303;87;25589;-73
2022/04/27 06:09:36;;;;;;;23.15;14.13;;;;;;;10.65;77.12;100846.66;1631394;88;33080;-73
2022/04/27 06:12:05;;;;;;;21.00;13.58;;;;;;;10.92;76.73;100849.20;1631395;87;28043;-73
2022/04/27 06:14:31;;;;;;;18.00;12.88;;;;;;;11.17;75.68;100850.65;1631551;88;25406;-73
2022/04/27 06:16:58;;;;;;;20.62;12.70;;;;;;;11.35;75.38;100855.72;1631410;88;25449;-72
2022/04/27 06:19:24;;;;;;;15.70;11.80;;;;;;;11.51;74.08;100854.06;1631378;88;25671;-74
2022/04/27 06:21:50;;;;;;;17.32;11.80;;;;;;;11.68;73.44;100852.09;1631410;87;25405;-73
2022/04/27 06:24:16;;;;;;;14.33;11.20;;;;;;;11.89;72.56;100851.14;1631396;88;27403;-73
2022/04/27 06:26:42;;;;;;;17.25;10.85;;;;;;;12.16;72.36;100855.73;1631290;88;25589;-73
2022/04/27 06:29:09;;;;;;;17.12;11.73;;;;;;;12.40;71.73;100858.72;1631357;88;29712;-73
2022/04/27 06:31:35;;;;;;;20.75;11.38;;;;;;;12.67;71.28;100859.95;1631216;87;25653;-73
2022/04/27 06:34:02;;;;;;;16.60;11.48;;;;;;;13.02;70.89;100862.86;1631080;87;25666;-73
2022/04/27 06:36:28;;;;;;;15.20;10.48;;;;;;;13.33;69.50;100860.75;1647536;86;27924;-72
2022/04/27 06:38:54;;;;;;;13.65;10.98;;;;;;;13.62;69.04;100862.92;1645154;86;32988;-73
2022/04/27 06:41:20;;;;;;;15.00;10.50;;;;;;;13.96;68.33;100853.77;1656815;86;25632;-73
2022/04/27 06:43:47;;;;;;;17.85;10.68;;;;;;;14.27;67.69;100867.80;1658218;86;25614;-73
2022/04/27 06:46:14;;;;;;;14.63;9.60;;;;;;;14.59;67.12;100865.17;1658203;86;26243;-74
2022/04/27 06:48:40;;;;;;;14.25;9.80;;;;;;;14.94;66.79;100865.13;1658098;86;27353;-73
2022/04/27 06:51:06;;;;;;;12.35;9.53;;;;;;;15.20;64.86;100871.06;1657991;86;25489;-75
2022/04/27 06:53:32;;;;;;;10.80;8.25;;;;;;;15.41;63.82;100865.14;1657199;86;25603;-74
2022/04/27 06:55:59;;;;;;;14.40;8.15;;;;;;;15.71;62.77;100865.70;1655012;86;25706;-74
2022/04/27 06:58:25;;;;;;;12.03;8.63;;;;;;;15.99;62.26;100869.57;1655138;86;25466;-73
2022/04/27 07:00:51;;;;;;;11.57;7.78;;;;;;;16.32;61.86;100868.84;1654974;86;27371;-73
2022/04/27 07:03:18;;;;;;;13.78;8.00;;;;;;;16.62;60.73;100864.66;1654850;86;33680;-73
2022/04/27 07:05:44;;;;;;;12.13;8.90;;;;;;;16.91;60.13;100876.62;1654988;85;25679;-74
2022/04/27 07:08:10;;;;;;;10.72;7.40;;;;;;;17.19;59.02;100875.41;1654934;86;25645;-73
2022/04/27 07:10:36;;;;;;;12.47;7.00;;;;;;;17.46;58.64;100872.58;1655016;86;25565;-73
2022/04/27 07:13:05;;;;;;;8.23;6.37;;;;;;;17.80;58.19;100878.73;1654942;85;27459;-74
2022/04/27 07:15:32;;;;;;;8.83;6.30;;;;;;;18.13;56.46;100877.78;1655005;86;25651;-73
2022/04/27 07:17:58;;;;;;;8.88;6.65;;;;;;;18.39;56.12;100883.41;1654996;86;25497;-73
2022/04/27 07:20:24;;;;;;;8.80;6.30;;;;;;;18.68;54.87;100874.06;1654976;86;25702;-74
2022/04/27 07:22:50;;;;;;;7.87;6.10;;;;;;;18.93;54.18;100887.08;1655021;86;25645;-73
2022/04/27 07:25:18;;;;;;;8.00;6.10;;;;;;;19.24;53.88;100891.02;1655162;86;27416;-72
2022/04/27 07:27:45;;;;;;;8.20;6.25;;;;;;;19.49;53.16;100890.83;1655091;86;25688;-73
2022/04/27 07:30:13;;;;;;;8.20;5.78;;;;;;;19.74;51.83;100892.24;1655113;85;25403;-74
2022/04/27 07:32:39;;;;;;;7.80;5.85;;;;;;;20.00;51.66;100896.34;1655096;86;25795;-74
2022/04/27 07:35:07;;;;;;;9.83;6.47;;;;;;;20.34;50.49;100895.31;1655158;86;25484;-74
2022/04/27 07:37:38;;;;;;;8.98;5.65;;;;;;;20.53;49.92;100892.58;1655404;86;27884;-74
2022/04/27 07:40:10;;;;;;;7.22;4.80;;;;;;;20.77;49.33;100889.89;1655158;86;25703;-74
2022/04/27 07:42:37;;;;;;;9.03;5.08;;;;;;;21.10;48.54;100892.08;1655191;86;25570;-69
2022/04/27 07:45:06;;;;;;;8.60;4.50;;;;;;;21.42;48.30;100898.71;1655126;86;25623;-73
2022/04/27 07:47:44;;;;;;;8.00;4.15;;;;;;;21.65;47.42;100901.45;1655279;86;25611;-74
2022/04/27 07:50:15;;;;;;;5.47;4.12;;;;;;;21.99;46.82;100900.95;1655071;86;27304;-74
2022/04/27 07:52:43;;;;;;;7.40;4.37;;;;;;;22.31;46.48;100902.00;1654995;86;25659;-74
2022/04/27 07:55:10;;;;;;;10.82;4.58;;;;;;;22.65;45.24;100900.64;1630782;84;25968;-74
2022/04/27 07:57:37;;;;;;;5.85;4.22;;;;;;;22.88;44.35;100906.58;1623942;88;25563;-74
2022/04/27 08:00:09;;;;;;;6.35;3.72;;;;;;;23.01;42.84;100905.73;1624052;87;25572;-74
2022/04/27 08:02:38;;;;;;;4.65;3.42;;;;;;;23.00;42.54;100906.30;1624021;88;27492;-73
2022/04/27 08:05:06;;;;;;;8.63;3.95;;;;;;;23.18;42.44;100902.97;1622160;87;25657;-73
2022/04/27 08:07:41;;;;;;;7.17;3.85;;;;;;;23.43;41.77;100903.19;1623744;88;25717;-74
2022/04/27 08:10:16;;;;;;;4.03;3.40;;;;;;;23.67;41.13;100905.33;1623692;88;25758;-73
2022/04/27 08:12:46;;;;;;;4.40;4.00;;;;;;;23.74;40.49;100905.19;1623570;88;25790;-73
2022/04/27 08:15:14;;;;;;;4.72;3.60;;;;;;;23.95;40.11;100910.86;1623655;87;28203;-78
2022/04/27 08:18:02;;;;;;;6.05;3.37;;;;;;;24.24;39.99;100915.16;1623554;87;26209;-76
2022/04/27 08:23:20;;;;;;;4.12;3.62;;;;;;;24.65;38.58;100910.02;1623875;88;26430;-76
2022/04/27 08:25:48;;;;;;;5.15;3.05;;;;;;;24.91;38.37;100913.03;1623491;87;25647;-75
2022/04/27 08:28:16;;;;;;;7.75;2.75;;;;;;;25.03;37.70;100904.38;1623618;88;27365;-76
2022/04/27 08:30:45;;;;;;;3.40;3.07;;;;;;;25.16;36.93;100907.54;1623817;88;25595;-76
2022/04/27 08:33:13;;;;;;;;;;;;;;;25.01;36.38;100905.94;1625883;88;26343;-75
2022/04/27 08:35:39;;;;;;;3.50;3.20;;;;;;;25.04;35.65;100910.70;1623373;88;25681;-75
2022/04/27 08:38:07;;;;;;;5.92;3.10;;;;;;;25.28;36.56;100909.94;1622880;87;25781;-75
2022/04/27 08:40:40;;;;;;;8.25;3.33;;;;;;;25.65;35.69;100900.44;1623321;87;27264;-75
2022/04/27 08:43:09;;;;;;;3.50;2.70;;;;;;;25.73;35.04;100908.16;1623448;88;25626;-74
2022/04/27 08:45:37;;;;;;;4.58;3.02;;;;;;;25.85;34.80;100907.73;1623923;88;25446;-76
2022/04/27 08:48:05;;;;;;;2.85;2.60;;;;;;;26.11;34.45;100909.08;1623389;87;25689;-74
2022/04/27 08:50:31;;;;;;;3.55;2.25;;;;;;;26.25;33.73;100909.02;1624040;87;25657;-76
2022/04/27 08:52:57;;;;;;;3.35;3.02;;;;;;;25.98;32.78;100911.48;1623633;87;27394;-76
2022/04/27 08:55:27;;;;;;;5.80;3.33;;;;;;;25.30;32.82;100911.74;1646228;85;25683;-75
2022/04/27 08:57:57;;;;;;;4.42;2.70;;;;;;;24.69;33.12;100919.11;1654920;86;25696;-75
2022/04/27 09:00:23;;;;;;;3.42;2.58;;;;;;;24.12;33.24;100919.64;1647012;86;26340;-77
2022/04/27 09:02:53;;;;;;;5.42;3.08;;;;;;;23.61;33.68;100917.11;1654521;85;25543;-75
2022/04/27 09:05:21;;;;;;;2.65;2.45;;;;;;;23.20;34.03;100913.03;1654715;86;27339;-76
2022/04/27 09:07:53;;;;;;;3.37;2.72;;;;;;;22.94;33.85;100914.73;1654743;86;25629;-77
2022/04/27 09:10:23;;;;;;;3.70;2.72;;;;;;;22.69;34.04;100915.24;1654579;86;25600;-78
2022/04/27 09:12:53;;;;;;;4.90;3.00;;;;;;;22.65;34.95;100914.42;1654682;86;26198;-74
2022/04/27 09:15:23;;;;;;;3.98;2.95;;;;;;;23.01;34.73;100907.91;1654755;86;25594;-71
2022/04/27 09:21:14;;;;;;;2.98;2.08;;;;;;;23.07;34.17;100910.56;1654642;86;25680;-72
2022/04/27 09:23:37;;;;;;;2.17;1.98;;;;;;;23.24;33.77;100909.14;1645579;86;25562;-74
2022/04/27 09:26:03;;;;;;;2.70;2.12;;;;;;;22.99;33.14;100913.61;1654469;86;25678;-75
2022/04/27 09:28:30;;;;;;;3.17;2.00;;;;;;;22.62;32.97;100910.25;1653207;86;25558;-73
2022/04/27 09:30:57;;;;;;;5.22;2.05;;;;;;;22.34;33.19;100919.17;1654670;86;27483;-73
2022/04/27 09:33:37;;;;;;;2.55;1.87;;;;;;;22.74;34.16;100919.04;1654409;86;25694;-73
2022/04/27 09:36:23;;;;;;;3.02;2.40;;;;;;;23.64;33.64;100908.85;1654684;86;25768;-73
2022/04/27 09:38:52;;;;;;;3.10;2.55;;;;;;;23.54;32.79;100920.61;1654666;86;25841;-72
2022/04/27 09:41:42;;;;;;;4.22;2.72;;;;;;;23.18;32.54;100918.15;1654599;86;25787;-73
2022/04/27 09:44:30;;;;;;;3.50;2.33;;;;;;;22.72;32.64;100911.73;1654776;86;27495;-72
2022/04/27 09:46:58;;;;;;;5.08;2.22;;;;;;;22.16;32.35;100917.52;1654467;86;25633;-73
2022/04/27 09:49:25;;;;;;;4.25;2.35;;;;;;;21.72;32.76;100919.44;1654708;86;25670;-73
2022/04/27 09:51:54;;;;;;;3.42;2.35;;;;;;;21.44;33.01;100910.92;1646076;86;25722;-73
2022/04/27 09:54:29;;;;;;;5.03;2.42;;;;;;;21.04;33.24;100911.41;1608652;88;25816;-73
2022/04/27 09:57:00;;;;;;;5.37;1.90;;;;;;;20.85;33.64;100913.61;1615881;88;27303;-73
2022/04/27 09:59:34;;;;;;;6.37;2.60;;;;;;;20.71;33.62;100921.02;1615859;88;25525;-73
2022/04/27 10:02:08;;;;;;;2.30;2.10;;;;;;;20.55;33.64;100917.50;1615660;88;25687;-72
2022/04/27 10:04:36;;;;;;;4.53;2.20;;;;;;;20.37;33.83;100924.81;1615903;88;25681;-72
2022/04/27 10:07:05;;;;;;;2.87;2.12;;;;;;;20.30;34.08;100921.33;1615854;88;25737;-74
2022/04/27 10:09:33;;;;;;;3.83;2.05;;;;;;;20.31;34.15;100921.56;1595538;88;27366;-73
2022/04/27 10:12:11;;;;;;;3.80;2.33;;;;;;;20.20;33.98;100923.27;1616162;88;25736;-71
2022/04/27 10:14:33;;;;;;;4.62;2.20;;;;;;;20.04;34.07;100919.20;1617172;87;25586;-70
2022/04/27 10:16:59;;;;;;;4.62;1.92;;;;;;;20.05;34.23;100920.78;1616800;88;25700;-71
2022/04/27 10:19:26;;;;;;;3.05;1.90;;;;;;;20.14;34.36;100924.14;1617248;88;25640;-68
2022/04/27 10:22:00;;;;;;;5.70;2.10;;;;;;;20.23;33.82;100923.93;1617185;88;27444;-69
2022/04/27 10:24:49;;;;;;;2.37;2.02;;;;;;;20.26;33.83;100921.84;1620140;87;25696;-69
2022/04/27 10:27:26;;;;;;;2.50;1.90;;;;;;;20.32;33.70;100922.34;1624195;88;25767;-69
2022/04/27 10:30:05;;;;;;;4.45;2.40;;;;;;;20.30;33.65;100920.55;1624043;88;25659;-70
2022/04/27 10:32:47;;;;;;;3.67;1.60;;;;;;;20.15;33.29;100919.44;1623010;88;25756;-69
2022/04/27 10:35:33;;;;;;;3.40;2.10;;;;;;;20.02;33.18;100917.38;1623168;88;27323;-71
2022/04/27 10:38:02;;;;;;;3.27;1.77;;;;;;;19.77;33.25;100923.10;1623939;88;25821;-70
2022/04/27 10:40:42;;;;;;;3.45;1.70;;;;;;;19.66;33.18;100932.98;1621491;88;25690;-69
2022/04/27 10:43:14;;;;;;;2.85;2.27;;;;;;;19.50;33.21;100927.52;1622875;88;26282;-70
2022/04/27 10:45:47;;;;;;;5.55;2.15;;;;;;;19.37;33.50;100931.48;1601680;88;25785;-69
2022/04/27 10:48:29;;;;;;;4.53;2.40;;;;;;;19.29;33.79;100926.41;1624030;88;28520;-70
2022/04/27 10:51:13;;;;;;;3.67;2.40;;;;;;;19.23;34.18;100927.81;1600008;89;25928;-73
2022/04/27 10:53:42;;;;;;;3.50;2.40;;;;;;;19.03;34.63;100923.59;1610640;89;25847;-72
2022/04/27 10:56:26;;;;;;;3.72;2.40;;;;;;;18.85;34.61;100927.21;1645479;86;26275;-71
2022/04/27 10:58:53;;;;;;;5.15;2.00;;;;;;;18.67;34.75;100932.16;1656391;86;25722;-71
2022/04/27 11:01:27;;;;;;;6.03;2.90;;;;;;;18.50;34.98;100930.30;1656494;86;27334;-70
2022/04/27 11:03:59;;;;;;;7.03;2.42;;;;;;;18.31;35.06;100938.55;1655732;86;25687;-70
2022/04/27 11:06:25;;;;;;;4.47;2.60;;;;;;;18.13;35.30;100935.27;1656585;86;25620;-71
2022/04/27 11:09:16;;;;;;;4.40;2.33;;;;;;;18.00;35.53;100935.08;1622119;87;25748;-70
2022/04/27 11:11:56;;;;;;;2.87;2.22;;;;;;;17.82;35.54;100929.80;1622152;88;25819;-71
2022/04/27 11:14:34;;;;;;;5.80;3.33;;;;;;;17.62;35.54;100933.44;1622258;87;27344;-71
2022/04/27 11:16:59;;;;;;;2.80;2.25;;;;;;;17.43;35.71;100933.99;1622047;87;26341;-71
2022/04/27 11:19:38;;;;;;;2.40;2.20;;;;;;;17.23;36.01;100928.28;1622359;87;25631;-70
2022/04/27 11:22:15;;;;;;;3.77;2.42;;;;;;;17.16;36.22;100935.66;1622224;87;26225;-71
2022/04/27 11:24:48;;;;;;;4.62;2.30;;;;;;;17.05;36.56;100932.33;1622042;87;26451;-72
2022/04/27 11:27:26;;;;;;;5.28;2.55;;;;;;;16.95;36.68;100928.87;1611484;88;27945;-71
2022/04/27 11:29:54;;;;;;;5.47;2.35;;;;;;;16.87;36.63;100928.37;1622117;88;25752;-71
2022/04/27 11:32:21;;;;;;;3.70;2.15;;;;;;;16.73;36.62;100932.73;1622248;88;25503;-71
2022/04/27 11:34:49;;;;;;;3.05;2.50;;;;;;;16.70;36.70;100932.06;1622118;88;25776;-69
2022/04/27 11:37:19;;;;;;;4.72;3.35;;;;;;;16.69;36.95;100932.40;1622202;87;25587;-64
2022/04/27 11:39:46;;;;;;;3.47;2.87;;;;;;;16.68;36.97;100928.84;1622160;87;26910;-65
2022/04/27 11:42:16;;;;;;;4.08;2.52;;;;;;;16.70;36.86;100927.15;1622206;88;25923;-65
2022/04/27 11:44:52;;;;;;;4.83;3.50;;;;;;;16.65;36.95;100934.97;1622234;88;25546;-66